Haverfordwest, United Kingdom
Current Conditions -  °F | °C
As of 5:50 AM on Sunday 21 Dec 2014 (Local Time) from EGOP Reporting Station
Broken Clouds Broken Clouds  
Wind Chill: 40°   Ceiling: 2600
Heat Index: 48°   Visibility: 2.3mi
Dew Point: 46°   Wind: 26mph
Humidity: 93%   Direction: 260°W
Pressure: 30.36"   Gusts: 40mph
Location:  51.8°N, 4.97°W
Report Text: EGOP 210550Z AUTO 26023G35KT 3800 // FEW013/// BKN026/// 09/08 Q1028
Loading
Personal Weather Stations






























Interactive Weather Map New forecast layout! Learn more

10-Day Weather Forecast

Advertisements
Track Severe Weather on mobile